Terminal Aerodrome Forecast
Issued by NWS Buffalo, NY

Home | Current Version | Previous Version | Text Only | Print | Product List | Glossary On
Versions: 1 2 3 4 5 6 7 8 9 10 11 12 13 14 15 16 17 18 19 20 21 22 23 24 25 26 27 28 29
000
FTUS41 KBUF 010500
TAFROC
TAF
KROC 010520Z 0106/0206 25009KT P6SM -SN OVC030
     FM010800 30010KT P6SM -SN OVC020
     FM011000 34009KT P6SM OVC020
     FM011200 02008KT P6SM OVC020
     FM011900 05011KT P6SM OVC025
     FM012100 05012KT 5SM -SN OVC060
     FM012300 06011KT 2SM -SN OVC050
     FM020000 06011KT 4SM -SN OVC035
     FM020300 06012KT 1SM -SN OVC025
     FM020500 05013KT 1/2SM SN OVC020=

USA.gov is the U.S. government's official web portal to all federal, state and local government web resources and services.